Terminal Aerodrome Forecast
Issued by NWS

Home | Current Version | Previous Version | Text Only | Print | Product List | Glossary On
Versions: 1 2 3 4 5 6 7 8 9 10 11 12 13 14
000
FTUS43 KLSX 282300
TAFUIN
TAF
KUIN 282320Z 2900/2924 13010KT P6SM SKC
     FM291300 17014G24KT P6SM VCSH OVC050
     FM291900 26012KT P6SM SCT050 SCT150=

USA.gov is the U.S. government's official web portal to all federal, state and local government web resources and services.